Time;durP1;ratioP1;P1;durP2;ratioP2;P2;SDS_P1;SDS_P2;PMS_P1;PMS_P2;Temp;Humidity;BMP_temperature;BMP_pressure;BME280_temperature;BME280_humidity;BME280_pressure;Samples;Min_cycle;Max_cycle;Signal;HPM_P1;HPM_P2
2021/07/30 00:00:29;;;;;;;9.55;1.50;;;;;;;12.42;49.30;100784.59;5024900;28;20044;-69
2021/07/30 00:02:55;;;;;;;4.75;1.35;;;;;;;12.66;48.59;100787.75;5020601;28;20045;-68
2021/07/30 00:05:20;;;;;;;9.38;2.30;;;;;;;12.26;49.99;100787.09;5024285;28;20091;-69
2021/07/30 00:07:46;;;;;;;3.65;1.25;;;;;;;12.55;48.76;100781.34;5032317;28;20242;-69
2021/07/30 00:10:12;;;;;;;10.20;1.83;;;;;;;12.42;49.62;100778.47;5007935;28;20533;-68
2021/07/30 00:12:38;;;;;;;7.70;2.00;;;;;;;12.13;50.04;100775.50;5019143;28;20172;-69
2021/07/30 00:15:06;;;;;;;8.93;1.92;;;;;;;12.61;49.19;100776.66;5021270;28;20468;-69
2021/07/30 00:17:32;;;;;;;10.00;2.63;;;;;;;12.65;48.87;100772.94;5009496;28;20086;-69
2021/07/30 00:20:00;;;;;;;5.03;1.40;;;;;;;12.66;48.89;100777.25;5026403;28;20368;-69
2021/07/30 00:22:26;;;;;;;9.13;2.53;;;;;;;12.44;49.40;100774.84;5026567;28;20042;-69
2021/07/30 00:24:51;;;;;;;3.78;1.33;;;;;;;12.65;48.80;100767.72;5021287;28;20290;-69
2021/07/30 00:27:17;;;;;;;7.70;2.08;;;;;;;12.61;48.99;100768.78;5025527;28;20184;-69
2021/07/30 00:29:43;;;;;;;6.90;2.45;;;;;;;12.29;49.85;100771.22;5008419;28;20061;-69
2021/07/30 00:32:08;;;;;;;11.02;1.92;;;;;;;12.54;49.16;100769.19;5008732;28;20592;-68
2021/07/30 00:34:34;;;;;;;13.15;2.38;;;;;;;12.25;50.41;100763.59;5025786;28;20029;-69
2021/07/30 00:36:59;;;;;;;4.25;1.80;;;;;;;12.08;50.70;100772.25;5025672;28;20038;-68
2021/07/30 00:39:25;;;;;;;4.55;1.58;;;;;;;12.11;50.33;100766.91;5025054;28;20649;-69
2021/07/30 00:41:50;;;;;;;8.02;2.00;;;;;;;12.42;49.54;100768.88;5025314;28;20494;-69
2021/07/30 00:44:15;;;;;;;9.73;3.30;;;;;;;12.09;50.49;100763.50;5026651;28;20025;-69
2021/07/30 00:46:41;;;;;;;3.67;1.90;;;;;;;12.24;50.17;100765.34;5003768;28;20037;-69
2021/07/30 00:49:07;;;;;;;4.63;2.13;;;;;;;12.38;49.80;100763.81;5031639;28;20061;-69
2021/07/30 00:51:33;;;;;;;8.48;2.53;;;;;;;12.12;50.22;100767.72;5019518;28;20036;-69
2021/07/30 00:53:59;;;;;;;2.63;1.33;;;;;;;12.34;50.02;100772.78;5019985;28;20116;-69
2021/07/30 00:56:25;;;;;;;7.07;2.50;;;;;;;12.01;50.52;100769.09;5023439;28;20030;-69
2021/07/30 00:58:51;;;;;;;4.85;1.80;;;;;;;12.29;50.11;100766.00;5009956;28;20090;-69
2021/07/30 01:01:17;;;;;;;7.38;2.90;;;;;;;12.21;50.56;100773.38;5011927;28;20079;-69
2021/07/30 01:03:43;;;;;;;10.40;2.90;;;;;;;12.56;49.63;100762.94;5020977;28;20037;-70
2021/07/30 01:06:08;;;;;;;13.60;1.98;;;;;;;12.80;48.88;100770.50;5022356;28;20415;-70
2021/07/30 01:08:37;;;;;;;3.45;1.52;;;;;;;11.81;51.21;100766.56;5031693;28;20148;-70
2021/07/30 01:11:02;;;;;;;7.25;2.08;;;;;;;12.64;49.35;100768.63;5008253;28;20092;-70
2021/07/30 01:13:28;;;;;;;6.78;2.70;;;;;;;12.45;49.81;100766.09;5023787;28;20041;-70
2021/07/30 01:15:53;;;;;;;6.57;1.75;;;;;;;12.31;50.26;100757.19;5022379;28;20029;-70
2021/07/30 01:18:18;;;;;;;10.10;2.17;;;;;;;12.65;49.21;100766.88;5004968;28;20056;-70
2021/07/30 01:20:46;;;;;;;11.23;2.78;;;;;;;12.49;49.82;100769.38;5031633;28;20470;-70
2021/07/30 01:23:13;;;;;;;5.22;2.28;;;;;;;12.54;49.42;100769.19;5017436;28;20509;-69
2021/07/30 01:25:39;;;;;;;5.35;1.92;;;;;;;11.97;50.52;100769.31;5023022;28;20041;-69
2021/07/30 01:28:04;;;;;;;17.15;3.45;;;;;;;11.75;50.98;100759.81;5018347;28;20064;-70
2021/07/30 01:30:30;;;;;;;7.18;2.35;;;;;;;11.87;50.95;100764.50;5004594;28;20037;-69
2021/07/30 01:32:56;;;;;;;9.43;2.10;;;;;;;12.49;49.45;100758.91;5018898;28;20045;-69
2021/07/30 01:35:21;;;;;;;5.20;2.50;;;;;;;12.42;49.00;100770.63;5023239;28;20038;-69
2021/07/30 01:37:47;;;;;;;6.28;2.72;;;;;;;11.73;51.38;100761.66;5009626;28;20025;-69
2021/07/30 01:40:13;;;;;;;10.00;3.28;;;;;;;11.65;51.25;100767.25;5039732;28;20033;-69
2021/07/30 01:42:39;;;;;;;12.73;2.30;;;;;;;11.91;51.02;100761.72;5021562;28;20503;-70
2021/07/30 01:45:08;;;;;;;7.78;3.30;;;;;;;11.56;51.75;100765.06;5033224;28;20036;-70
2021/07/30 01:47:35;;;;;;;6.32;3.08;;;;;;;11.72;51.61;100762.56;5029400;28;20472;-69
2021/07/30 01:50:01;;;;;;;4.00;2.38;;;;;;;12.12;49.92;100763.34;5033401;28;20025;-69
2021/07/30 01:52:26;;;;;;;6.82;2.75;;;;;;;11.65;51.30;100764.63;5026377;28;20029;-69
2021/07/30 01:54:51;;;;;;;4.30;2.85;;;;;;;11.76;50.89;100766.75;5027592;28;20035;-69
2021/07/30 01:57:18;;;;;;;15.15;3.40;;;;;;;11.54;51.77;100761.66;5020132;28;20069;-69
2021/07/30 01:59:43;;;;;;;6.90;2.30;;;;;;;11.29;52.17;100768.94;5024030;28;20065;-69
2021/07/30 02:02:09;;;;;;;10.48;2.60;;;;;;;11.92;50.64;100760.81;5027744;28;20052;-69
2021/07/30 02:04:34;;;;;;;10.98;3.80;;;;;;;11.75;50.98;100762.41;5019691;28;20036;-69
2021/07/30 02:07:01;;;;;;;3.47;2.65;;;;;;;11.99;50.34;100757.00;5025317;28;20048;-68
2021/07/30 02:09:31;;;;;;;11.27;3.08;;;;;;;11.62;51.24;100758.66;5021481;28;20128;-69
2021/07/30 02:11:57;;;;;;;6.18;2.22;;;;;;;11.26;52.19;100751.56;5031468;28;20414;-69
2021/07/30 02:14:25;;;;;;;7.03;3.30;;;;;;;11.61;51.46;100756.97;5029528;28;20073;-69
2021/07/30 02:17:00;;;;;;;6.43;2.53;;;;;;;11.66;51.32;100755.88;5011632;28;20025;-69
2021/07/30 02:19:26;;;;;;;7.28;2.80;;;;;;;11.70;51.18;100753.94;5024906;28;20060;-69
2021/07/30 02:21:54;;;;;;;8.30;3.15;;;;;;;11.67;51.08;100756.72;5007855;28;20410;-70
2021/07/30 02:24:20;;;;;;;11.27;3.33;;;;;;;11.39;51.91;100751.88;5029470;28;20025;-69
2021/07/30 02:26:46;;;;;;;8.40;3.50;;;;;;;11.80;50.72;100762.25;5023014;28;20344;-69
2021/07/30 02:29:12;;;;;;;12.15;3.80;;;;;;;11.57;51.65;100755.44;5011605;28;20044;-69
2021/07/30 02:31:38;;;;;;;7.00;3.10;;;;;;;11.60;51.39;100753.53;5028825;28;20026;-70
2021/07/30 02:34:03;;;;;;;9.07;2.78;;;;;;;11.49;51.75;100747.09;5021986;28;20031;-69
2021/07/30 02:36:29;;;;;;;7.68;2.83;;;;;;;11.60;51.45;100750.91;5022028;28;20055;-70
2021/07/30 02:38:54;;;;;;;4.75;2.72;;;;;;;11.76;51.23;100758.06;5026798;28;20036;-70
2021/07/30 02:41:20;;;;;;;12.73;4.10;;;;;;;11.84;50.73;100763.78;5019166;28;20029;-69
2021/07/30 02:43:46;;;;;;;10.70;3.80;;;;;;;11.12;52.73;100759.19;5020315;28;20029;-69
2021/07/30 02:46:14;;;;;;;14.50;4.18;;;;;;;11.37;52.02;100762.41;5032000;28;20049;-69
2021/07/30 02:48:40;;;;;;;7.18;3.83;;;;;;;11.43;52.00;100759.53;5025153;28;20296;-70
2021/07/30 02:51:06;;;;;;;13.23;3.78;;;;;;;11.36;51.91;100765.97;5026923;28;20419;-70
2021/07/30 02:53:31;;;;;;;10.48;4.05;;;;;;;10.70;53.61;100762.72;5027556;28;20028;-69
2021/07/30 02:55:56;;;;;;;9.23;3.08;;;;;;;11.34;52.18;100762.56;5030853;28;20885;-70
2021/07/30 02:58:22;;;;;;;13.77;3.75;;;;;;;11.48;51.79;100766.31;5008608;28;20065;-69
2021/07/30 03:00:47;;;;;;;5.63;3.80;;;;;;;10.80;53.36;100764.03;5018892;28;20083;-68
2021/07/30 03:03:13;;;;;;;6.28;3.65;;;;;;;11.40;51.91;100758.84;5025982;28;20025;-69
2021/07/30 03:05:38;;;;;;;7.07;3.35;;;;;;;11.08;52.83;100757.63;5021148;28;20026;-69
2021/07/30 03:08:04;;;;;;;8.82;3.17;;;;;;;11.33;52.09;100766.09;5025301;28;20072;-69
2021/07/30 03:10:30;;;;;;;14.70;4.55;;;;;;;11.38;51.98;100761.50;5021478;28;20033;-69
2021/07/30 03:12:55;;;;;;;10.68;4.30;;;;;;;11.34;51.98;100767.78;5014610;28;20040;-68
2021/07/30 03:15:20;;;;;;;9.48;3.70;;;;;;;11.50;51.43;100760.09;5023520;28;20466;-69
2021/07/30 03:17:46;;;;;;;12.55;3.58;;;;;;;11.53;51.71;100765.22;5027575;28;20110;-68
2021/07/30 03:20:12;;;;;;;11.20;3.65;;;;;;;11.47;51.59;100755.00;5023999;28;20037;-69
2021/07/30 03:22:37;;;;;;;7.88;3.88;;;;;;;11.25;51.92;100761.19;5033214;28;20041;-69
2021/07/30 03:25:03;;;;;;;10.07;3.25;;;;;;;11.32;52.04;100753.94;5019761;28;20041;-70
2021/07/30 03:27:29;;;;;;;10.82;3.85;;;;;;;11.24;52.43;100753.41;5029065;28;20025;-69
2021/07/30 03:29:55;;;;;;;4.82;3.53;;;;;;;11.45;51.39;100747.22;5022252;28;20021;-70
2021/07/30 03:32:21;;;;;;;10.73;3.72;;;;;;;11.35;51.74;100751.19;5021781;28;20073;-70
2021/07/30 03:34:46;;;;;;;10.15;4.13;;;;;;;11.46;51.50;100746.31;5021560;28;20076;-70
2021/07/30 03:37:15;;;;;;;13.05;3.80;;;;;;;11.56;51.20;100756.34;5013017;28;20114;-70
2021/07/30 03:39:40;;;;;;;9.80;4.88;;;;;;;11.53;51.39;100749.50;5027283;28;20084;-70
2021/07/30 03:42:07;;;;;;;12.48;4.00;;;;;;;11.44;51.47;100752.50;5022954;28;20838;-73
2021/07/30 03:44:33;;;;;;;9.68;4.53;;;;;;;11.40;51.97;100754.44;5026200;28;20071;-70
2021/07/30 03:46:58;;;;;;;8.07;3.80;;;;;;;11.54;51.26;100755.56;5023425;28;20859;-70
2021/07/30 03:49:24;;;;;;;7.88;3.67;;;;;;;11.46;51.41;100754.16;5027457;28;20049;-69
2021/07/30 03:51:50;;;;;;;14.05;4.32;;;;;;;11.09;52.99;100754.13;5008845;28;20029;-69
2021/07/30 03:54:16;;;;;;;7.88;3.47;;;;;;;10.72;53.82;100751.28;5020273;28;20534;-69
2021/07/30 03:56:42;;;;;;;16.63;4.40;;;;;;;10.99;53.38;100754.50;5018796;28;20022;-69
2021/07/30 03:59:09;;;;;;;15.75;5.05;;;;;;;10.96;53.33;100754.63;5018760;28;20033;-69
2021/07/30 04:01:35;;;;;;;10.13;3.75;;;;;;;11.31;52.15;100744.38;5013408;28;20037;-69
2021/07/30 04:04:00;;;;;;;7.82;3.88;;;;;;;11.47;51.88;100744.53;5023367;28;20512;-69
2021/07/30 04:06:26;;;;;;;11.77;5.07;;;;;;;11.31;51.82;100746.13;5020756;28;20411;-69
2021/07/30 04:08:51;;;;;;;9.18;4.20;;;;;;;11.10;52.86;100753.19;5017898;28;20109;-70
2021/07/30 04:11:17;;;;;;;9.43;5.10;;;;;;;11.29;52.46;100755.84;5022635;28;20034;-70
2021/07/30 04:13:43;;;;;;;7.38;3.85;;;;;;;11.34;52.44;100751.25;5018978;28;20033;-69
2021/07/30 04:16:08;;;;;;;8.05;4.57;;;;;;;11.42;51.99;100752.59;5019437;28;20112;-70
2021/07/30 04:18:35;;;;;;;10.63;4.63;;;;;;;11.65;51.33;100748.06;5026244;28;20105;-70
2021/07/30 04:21:07;;;;;;;13.20;4.85;;;;;;;11.61;51.50;100751.75;5022601;28;20056;-69
2021/07/30 04:23:33;;;;;;;10.75;5.07;;;;;;;11.82;50.93;100749.91;5026207;28;20060;-71
2021/07/30 04:25:58;;;;;;;11.50;4.80;;;;;;;11.64;51.74;100752.47;5023331;28;20491;-69
2021/07/30 04:28:24;;;;;;;7.40;4.60;;;;;;;11.91;50.75;100743.41;5022803;28;20167;-70
2021/07/30 04:30:50;;;;;;;15.88;5.50;;;;;;;11.60;51.39;100745.66;5024903;28;20035;-69
2021/07/30 04:33:15;;;;;;;9.25;4.47;;;;;;;11.77;51.38;100741.41;5010785;28;20110;-69
2021/07/30 04:35:41;;;;;;;14.23;4.38;;;;;;;11.98;50.67;100743.06;5004442;28;20483;-70
2021/07/30 04:38:06;;;;;;;12.95;4.60;;;;;;;12.15;50.28;100750.06;5002786;28;20376;-69
2021/07/30 04:40:32;;;;;;;11.18;4.25;;;;;;;12.17;50.26;100750.84;5008702;28;20025;-70
2021/07/30 04:42:58;;;;;;;6.28;3.83;;;;;;;11.96;50.71;100751.91;5009076;28;20083;-69
2021/07/30 04:45:25;;;;;;;7.20;4.13;;;;;;;11.91;51.03;100749.50;5024206;28;20034;-69
2021/07/30 04:47:50;;;;;;;11.80;4.38;;;;;;;11.28;52.40;100741.91;5028900;28;20025;-69
2021/07/30 04:50:16;;;;;;;9.77;4.22;;;;;;;12.01;51.02;100755.16;5002386;28;20428;-70
2021/07/30 04:52:42;;;;;;;12.68;5.00;;;;;;;11.74;51.91;100754.66;5022300;28;20029;-70
2021/07/30 04:55:08;;;;;;;10.82;5.18;;;;;;;11.70;51.74;100756.56;5022823;28;20037;-69
2021/07/30 04:57:33;;;;;;;8.93;4.32;;;;;;;11.71;51.63;100752.16;5019290;28;20029;-69
2021/07/30 04:59:59;;;;;;;9.30;4.30;;;;;;;11.91;51.32;100757.38;5021525;28;20041;-69
2021/07/30 05:02:24;;;;;;;9.70;4.63;;;;;;;11.93;50.99;100746.78;5023958;28;20040;-70
2021/07/30 05:04:53;;;;;;;11.07;5.18;;;;;;;12.04;51.25;100744.50;5024473;28;20025;-70
2021/07/30 05:07:19;;;;;;;9.82;4.28;;;;;;;11.77;51.70;100744.91;5022147;28;20025;-69
2021/07/30 05:09:44;;;;;;;13.00;4.10;;;;;;;12.40;50.88;100752.38;5025201;28;20069;-70
2021/07/30 05:12:10;;;;;;;12.45;5.20;;;;;;;12.62;49.55;100752.09;5023650;28;20172;-70
2021/07/30 05:14:35;;;;;;;12.73;5.47;;;;;;;13.38;48.60;100749.06;5016361;28;20030;-69
2021/07/30 05:17:01;;;;;;;10.00;4.68;;;;;;;13.36;47.97;100753.59;5031275;28;20375;-70
2021/07/30 05:19:26;;;;;;;12.00;4.85;;;;;;;13.92;46.33;100749.66;5027678;28;20045;-69
2021/07/30 05:21:51;;;;;;;11.52;4.97;;;;;;;15.28;43.39;100744.34;5026511;28;20041;-68
2021/07/30 05:24:17;;;;;;;11.18;3.60;;;;;;;16.69;41.17;100748.41;5024759;28;20034;-70
2021/07/30 05:26:42;;;;;;;16.75;3.88;;;;;;;14.98;43.45;100742.63;5024058;28;20040;-70
2021/07/30 05:29:08;;;;;;;7.20;3.67;;;;;;;12.79;48.60;100748.66;5008920;28;20045;-69
2021/07/30 05:31:35;;;;;;;12.52;4.90;;;;;;;13.65;47.17;100744.16;5011202;28;20038;-69
2021/07/30 05:34:01;;;;;;;17.15;4.82;;;;;;;13.32;47.94;100754.66;5021573;28;20195;-68
2021/07/30 05:36:26;;;;;;;9.80;4.07;;;;;;;13.00;49.11;100751.94;5023342;28;20176;-68
2021/07/30 05:38:52;;;;;;;8.93;4.13;;;;;;;13.36;47.90;100748.34;5032212;28;20119;-68
2021/07/30 05:41:17;;;;;;;8.35;4.18;;;;;;;14.30;46.53;100743.13;5021108;28;20157;-70
2021/07/30 05:43:45;;;;;;;12.55;4.53;;;;;;;16.30;41.71;100738.75;5029625;28;20563;-70
2021/07/30 05:46:14;;;;;;;8.60;3.78;;;;;;;18.09;38.28;100737.72;5023601;28;20496;-70
2021/07/30 05:48:39;;;;;;;10.80;4.75;;;;;;;20.12;34.94;100739.50;5018661;28;20033;-70
2021/07/30 05:51:05;;;;;;;14.52;3.40;;;;;;;20.16;33.71;100744.56;5004283;28;20083;-68
2021/07/30 05:53:30;;;;;;;12.45;3.95;;;;;;;20.59;33.07;100736.50;5020104;28;20558;-69
2021/07/30 05:55:56;;;;;;;12.52;4.40;;;;;;;20.84;34.47;100740.63;5031673;28;20620;-69
2021/07/30 05:58:21;;;;;;;13.93;4.18;;;;;;;20.32;34.36;100737.03;5031321;28;20025;-70
2021/07/30 06:00:47;;;;;;;9.13;3.15;;;;;;;20.48;33.28;100740.06;5029620;28;20486;-69
2021/07/30 06:03:12;;;;;;;12.93;3.78;;;;;;;20.60;32.77;100737.38;5014273;28;20471;-69
2021/07/30 06:05:38;;;;;;;12.52;4.00;;;;;;;20.08;34.26;100740.75;5027698;28;20025;-70
2021/07/30 06:08:06;;;;;;;7.43;3.72;;;;;;;19.85;35.05;100741.78;5017789;28;20395;-70
2021/07/30 06:10:33;;;;;;;13.43;3.70;;;;;;;20.99;33.29;100738.44;5022485;28;20033;-68
2021/07/30 06:12:59;;;;;;;9.95;3.35;;;;;;;21.07;31.97;100745.75;5030960;28;20025;-69
2021/07/30 06:15:25;;;;;;;6.85;3.58;;;;;;;21.81;31.57;100739.28;5030239;28;20043;-70
2021/07/30 06:17:52;;;;;;;10.77;3.97;;;;;;;22.85;29.25;100729.69;5031153;28;20060;-69
2021/07/30 06:20:19;;;;;;;9.63;3.45;;;;;;;22.54;29.92;100737.88;5022408;28;20473;-70
2021/07/30 06:22:45;;;;;;;9.27;3.88;;;;;;;22.86;29.90;100735.84;5025034;28;20045;-69
2021/07/30 06:25:11;;;;;;;8.63;3.97;;;;;;;24.21;27.86;100731.56;5025615;28;20118;-68
2021/07/30 06:27:37;;;;;;;12.07;3.70;;;;;;;23.65;27.94;100732.66;5006539;28;20618;-69
2021/07/30 06:30:07;;;;;;;7.47;3.30;;;;;;;22.89;29.20;100732.88;5024485;28;20036;-69
2021/07/30 06:32:33;;;;;;;10.23;3.90;;;;;;;23.11;29.43;100739.69;5025573;28;20139;-69
2021/07/30 06:34:58;;;;;;;11.57;3.67;;;;;;;22.25;30.47;100742.38;5028258;28;20037;-69
2021/07/30 06:37:24;;;;;;;6.50;3.55;;;;;;;23.56;29.23;100738.91;5027409;28;20099;-69
2021/07/30 06:39:49;;;;;;;11.00;4.18;;;;;;;22.13;30.62;100734.53;5024475;28;20036;-70
2021/07/30 06:42:15;;;;;;;8.48;3.55;;;;;;;22.47;30.48;100736.78;5024353;28;20750;-69
2021/07/30 06:44:40;;;;;;;7.20;3.47;;;;;;;23.78;28.64;100737.63;5027157;28;20958;-69
2021/07/30 06:47:06;;;;;;;9.52;4.13;;;;;;;23.07;30.46;100740.94;5025365;28;20403;-69
2021/07/30 06:49:37;;;;;;;5.28;3.47;;;;;;;24.81;28.28;100735.31;5017392;28;20292;-72
2021/07/30 06:52:07;;;;;;;17.50;4.53;;;;;;;24.33;27.83;100726.81;5018781;28;20041;-69
2021/07/30 06:54:33;;;;;;;11.57;4.15;;;;;;;24.11;28.43;100732.63;5022895;28;20032;-71
2021/07/30 06:57:00;;;;;;;8.98;4.22;;;;;;;23.02;30.57;100737.91;5030365;28;20668;-70
2021/07/30 06:59:25;;;;;;;6.95;3.10;;;;;;;24.49;27.98;100742.13;5026530;28;20034;-69
2021/07/30 07:01:51;;;;;;;8.13;3.85;;;;;;;24.42;27.92;100735.75;5002881;28;20471;-71
2021/07/30 07:04:16;;;;;;;9.48;4.07;;;;;;;22.86;30.02;100742.00;5022103;28;20390;-70
2021/07/30 07:06:42;;;;;;;9.50;4.65;;;;;;;20.98;34.11;100741.25;5018173;28;20127;-69
2021/07/30 07:09:07;;;;;;;10.07;4.63;;;;;;;22.69;30.92;100740.09;5015634;28;20034;-69
2021/07/30 07:11:33;;;;;;;9.52;4.13;;;;;;;22.79;31.28;100741.75;5027631;28;20029;-69
2021/07/30 07:13:59;;;;;;;9.00;4.30;;;;;;;23.88;28.74;100737.56;5011944;28;20502;-69
2021/07/30 07:16:24;;;;;;;15.25;3.65;;;;;;;24.79;28.19;100730.13;5023473;28;20502;-69
2021/07/30 07:18:49;;;;;;;7.75;3.63;;;;;;;25.19;27.68;100735.84;5027310;28;20201;-70
2021/07/30 07:21:15;;;;;;;7.53;3.58;;;;;;;25.16;27.22;100744.22;5016106;28;20528;-70
2021/07/30 07:23:42;;;;;;;13.65;4.80;;;;;;;24.49;27.63;100739.47;5020451;28;20045;-70
2021/07/30 07:26:07;;;;;;;9.35;3.70;;;;;;;24.48;28.77;100740.47;5023488;28;20064;-69
2021/07/30 07:28:33;;;;;;;10.43;4.25;;;;;;;25.79;25.65;100741.06;5006534;28;20061;-70
2021/07/30 07:30:58;;;;;;;9.32;4.25;;;;;;;25.10;27.15;100740.34;5016456;28;20380;-69
2021/07/30 07:33:23;;;;;;;7.60;3.80;;;;;;;24.27;28.28;100745.28;5022279;28;20025;-69
2021/07/30 07:35:49;;;;;;;9.68;3.40;;;;;;;26.12;25.96;100743.81;5027216;28;20056;-70
2021/07/30 07:38:15;;;;;;;10.98;5.13;;;;;;;24.71;28.55;100745.28;5024652;28;20545;-69
2021/07/30 07:40:40;;;;;;;8.25;4.35;;;;;;;25.96;26.50;100741.09;5023836;28;20095;-69
2021/07/30 07:43:06;;;;;;;7.80;3.65;;;;;;;26.26;26.33;100737.78;5018806;28;20732;-70
2021/07/30 07:45:31;;;;;;;15.43;5.03;;;;;;;26.37;26.05;100741.94;5022942;28;20037;-69
2021/07/30 07:47:57;;;;;;;9.57;3.85;;;;;;;26.10;26.34;100737.78;5026831;28;20119;-70
2021/07/30 07:50:23;;;;;;;9.82;3.60;;;;;;;25.09;27.24;100740.50;5027646;28;20048;-70
2021/07/30 07:52:48;;;;;;;7.43;3.25;;;;;;;27.19;24.78;100735.59;5028095;28;20146;-70
2021/07/30 07:55:14;;;;;;;11.02;3.90;;;;;;;26.12;26.12;100737.63;5032951;28;20065;-70
2021/07/30 07:57:43;;;;;;;8.57;3.70;;;;;;;25.62;26.39;100742.03;5029510;28;20033;-69
2021/07/30 08:00:09;;;;;;;9.45;4.18;;;;;;;25.21;27.71;100737.38;5027651;28;20029;-69
2021/07/30 08:02:37;;;;;;;11.80;4.20;;;;;;;25.36;28.02;100740.28;5024816;28;20041;-71
2021/07/30 08:05:03;;;;;;;6.90;3.53;;;;;;;27.20;25.08;100734.59;5038319;23;20033;-68
2021/07/30 08:07:29;;;;;;;7.72;3.65;;;;;;;27.46;23.64;100729.75;5016003;28;20666;-67
2021/07/30 08:09:54;;;;;;;7.88;3.17;;;;;;;26.74;25.60;100731.69;5015592;28;20033;-69
2021/07/30 08:12:20;;;;;;;9.38;3.33;;;;;;;26.57;25.75;100733.56;5010787;28;20041;-68
2021/07/30 08:14:46;;;;;;;11.05;3.95;;;;;;;27.63;24.38;100727.00;4992623;28;20040;-67
2021/07/30 08:17:11;;;;;;;8.75;4.60;;;;;;;27.25;25.26;100735.75;4991498;28;20034;-68
2021/07/30 08:19:37;;;;;;;12.73;4.13;;;;;;;25.88;26.02;100739.25;5006120;28;20479;-68
2021/07/30 08:22:04;;;;;;;9.52;4.43;;;;;;;25.82;26.41;100735.41;4991229;28;20053;-69
2021/07/30 08:24:30;;;;;;;10.25;3.85;;;;;;;23.97;29.62;100731.34;4990072;28;20034;-68
2021/07/30 08:26:56;;;;;;;10.38;4.78;;;;;;;26.32;26.35;100735.44;4987657;28;20026;-68
2021/07/30 08:29:22;;;;;;;10.20;4.00;;;;;;;25.11;27.65;100731.31;4987213;28;20037;-67
2021/07/30 08:31:47;;;;;;;8.77;3.20;;;;;;;26.64;26.00;100735.41;4991740;28;20061;-67
2021/07/30 08:34:14;;;;;;;5.38;3.30;;;;;;;27.61;24.71;100720.94;4991544;28;20041;-67
2021/07/30 08:36:40;;;;;;;8.18;3.42;;;;;;;25.20;27.21;100724.19;5005340;28;20281;-67
2021/07/30 08:39:06;;;;;;;9.82;3.30;;;;;;;25.45;28.24;100739.28;5004116;28;20082;-69
2021/07/30 08:41:32;;;;;;;8.00;3.45;;;;;;;26.85;24.73;100726.81;4998303;28;20069;-67
2021/07/30 08:43:59;;;;;;;9.00;3.33;;;;;;;28.12;23.66;100737.38;4993204;28;20046;-69
2021/07/30 08:46:29;;;;;;;8.70;3.35;;;;;;;26.96;24.71;100728.28;4986981;28;20033;-67
2021/07/30 08:48:55;;;;;;;11.32;3.45;;;;;;;26.79;25.01;100732.03;4992109;28;20033;-69
2021/07/30 08:51:22;;;;;;;8.15;2.83;;;;;;;28.54;23.39;100725.25;4990244;28;20040;-68
2021/07/30 08:53:49;;;;;;;7.93;3.30;;;;;;;27.38;24.36;100727.09;4992097;28;20088;-69
2021/07/30 08:56:15;;;;;;;8.93;2.83;;;;;;;27.21;24.53;100725.53;4992082;28;20026;-68
2021/07/30 08:58:42;;;;;;;9.25;2.58;;;;;;;26.09;25.95;100730.78;4988242;28;20585;-69
2021/07/30 09:01:10;;;;;;;6.07;3.05;;;;;;;26.99;24.58;100733.31;4990437;28;20536;-68
2021/07/30 09:03:41;;;;;;;9.63;3.55;;;;;;;26.69;24.96;100732.22;4990311;28;20466;-68
2021/07/30 09:06:16;;;;;;;5.68;3.33;;;;;;;26.50;25.04;100728.88;4989558;28;20043;-66
2021/07/30 09:08:43;;;;;;;7.82;3.15;;;;;;;25.48;26.70;100728.25;4988191;28;20047;-68
2021/07/30 09:11:08;;;;;;;4.53;2.22;;;;;;;26.43;24.88;100727.88;4997922;28;20045;-69
2021/07/30 09:13:35;;;;;;;9.13;2.75;;;;;;;27.10;24.93;100718.69;4989550;28;20435;-69
2021/07/30 09:16:09;;;;;;;6.40;2.50;;;;;;;25.83;25.87;100718.31;4991287;28;20461;-69
2021/07/30 09:18:40;;;;;;;8.75;2.92;;;;;;;26.27;25.41;100717.19;4990063;28;20037;-66
2021/07/30 09:21:24;;;;;;;6.00;2.53;;;;;;;26.99;24.19;100714.53;4993521;28;20049;-69
2021/07/30 09:23:52;;;;;;;6.45;3.00;;;;;;;25.82;26.14;100719.34;5004865;28;20073;-66
2021/07/30 09:26:26;;;;;;;5.35;2.85;;;;;;;24.79;27.51;100715.94;4989263;28;20046;-66
2021/07/30 09:28:56;;;;;;;14.20;2.85;;;;;;;26.33;26.41;100713.81;4990837;28;20045;-68
2021/07/30 09:31:43;;;;;;;7.68;2.25;;;;;;;24.59;26.41;100716.16;4992475;28;20030;-67
2021/07/30 09:34:20;;;;;;;5.45;2.90;;;;;;;24.18;27.73;100707.81;4990928;28;20526;-67
2021/07/30 09:36:52;;;;;;;9.43;3.42;;;;;;;24.96;26.71;100700.81;4992157;28;20028;-69
2021/07/30 09:39:42;;;;;;;7.07;2.08;;;;;;;24.41;27.88;100707.31;4992045;28;20125;-66
2021/07/30 09:42:10;;;;;;;7.05;3.00;;;;;;;22.36;31.33;100707.59;4987258;28;20140;-67
2021/07/30 09:44:47;;;;;;;10.38;3.08;;;;;;;23.88;30.53;100710.88;4989000;28;20111;-70
2021/07/30 09:47:18;;;;;;;5.68;2.78;;;;;;;23.38;29.89;100705.03;4989701;28;20057;-67
2021/07/30 09:49:46;;;;;;;6.97;2.65;;;;;;;23.40;29.33;100705.72;4992594;28;20112;-69
2021/07/30 09:52:20;;;;;;;7.90;2.72;;;;;;;25.30;28.32;100708.00;4988511;28;20033;-70
2021/07/30 09:54:48;;;;;;;8.50;2.05;;;;;;;25.85;26.42;100705.63;4997982;28;20041;-66
2021/07/30 09:57:18;;;;;;;9.93;2.63;;;;;;;25.44;26.89;100694.84;4992355;28;20034;-69
2021/07/30 09:59:45;;;;;;;14.25;2.88;;;;;;;24.68;27.02;100705.50;4993550;28;20031;-67
2021/07/30 10:02:19;;;;;;;7.93;2.75;;;;;;;23.19;29.23;100697.13;4992994;28;20050;-68
2021/07/30 10:04:50;;;;;;;8.00;2.65;;;;;;;24.28;27.66;100696.19;4998884;28;20041;-66
2021/07/30 10:07:20;;;;;;;6.40;2.22;;;;;;;24.79;26.98;100694.53;4993685;28;20058;-67
2021/07/30 10:09:54;;;;;;;7.65;2.97;;;;;;;24.73;26.32;100685.34;4993568;28;20038;-70
2021/07/30 10:12:20;;;;;;;11.30;3.00;;;;;;;23.77;28.66;100693.28;4991822;28;20026;-70
2021/07/30 10:14:47;;;;;;;10.70;3.38;;;;;;;24.35;28.32;100687.44;5002240;28;20034;-70
2021/07/30 10:17:15;;;;;;;7.03;3.13;;;;;;;23.83;28.71;100690.84;4991862;28;20364;-66
2021/07/30 10:19:42;;;;;;;8.35;3.17;;;;;;;24.16;28.27;100683.09;4994337;28;20045;-67
2021/07/30 10:22:10;;;;;;;6.18;3.42;;;;;;;23.95;28.11;100674.63;4992766;28;20046;-68
2021/07/30 10:24:42;;;;;;;10.55;3.47;;;;;;;23.65;29.21;100665.13;4991700;28;20053;-68
2021/07/30 10:27:08;;;;;;;7.97;3.22;;;;;;;23.37;29.05;100674.03;4992528;28;20053;-69
2021/07/30 10:30:06;;;;;;;7.60;3.35;;;;;;;23.27;30.37;100677.72;4992665;28;20063;-69
2021/07/30 10:32:43;;;;;;;10.07;3.65;;;;;;;23.49;29.32;100679.97;4983158;28;20036;-70
2021/07/30 10:35:09;;;;;;;8.48;3.15;;;;;;;22.44;30.70;100675.78;4991921;28;20054;-66
2021/07/30 10:37:36;;;;;;;7.05;3.55;;;;;;;22.73;31.12;100678.38;4991283;28;20042;-68
2021/07/30 10:40:15;;;;;;;6.97;2.47;;;;;;;22.93;29.24;100676.47;4994622;28;20036;-66
2021/07/30 10:43:08;;;;;;;6.32;2.47;;;;;;;23.52;29.42;100674.38;5008282;28;20431;-69
2021/07/30 10:45:39;;;;;;;4.93;2.25;;;;;;;21.66;29.17;100675.81;4989379;28;20454;-66
2021/07/30 10:48:13;;;;;;;5.03;2.00;;;;;;;22.81;29.30;100669.69;5008208;28;20034;-69
2021/07/30 10:50:47;;;;;;;6.63;2.78;;;;;;;23.05;28.52;100673.63;4992725;28;20455;-69
2021/07/30 10:53:34;;;;;;;7.35;3.13;;;;;;;22.83;29.05;100672.19;4989151;28;20041;-66
2021/07/30 10:56:04;;;;;;;5.95;2.03;;;;;;;24.24;27.81;100677.84;4993312;28;20297;-69
2021/07/30 10:58:58;;;;;;;6.45;2.20;;;;;;;23.86;27.93;100679.03;4992556;28;20415;-68
2021/07/30 11:01:27;;;;;;;10.15;2.45;;;;;;;25.00;27.35;100676.31;4990409;28;20583;-68
2021/07/30 11:03:52;;;;;;;5.28;2.70;;;;;;;24.68;26.58;100673.44;4990941;28;20065;-67
2021/07/30 11:06:29;;;;;;;9.45;3.03;;;;;;;22.71;28.00;100674.19;4989877;28;20046;-67
2021/07/30 11:09:01;;;;;;;5.35;2.70;;;;;;;23.17;28.21;100669.78;4992960;28;20443;-66
2021/07/30 11:11:51;;;;;;;7.45;2.35;;;;;;;24.68;26.55;100671.59;4991861;28;20037;-66
2021/07/30 11:14:29;;;;;;;10.25;2.28;;;;;;;24.42;26.26;100666.31;4990571;28;20026;-68
2021/07/30 11:16:56;;;;;;;7.80;2.25;;;;;;;24.13;26.33;100677.25;5008675;28;20112;-67
2021/07/30 11:19:27;;;;;;;6.05;2.70;;;;;;;24.41;26.28;100676.16;4992641;28;20049;-67
2021/07/30 11:21:54;;;;;;;4.70;2.08;;;;;;;24.64;26.76;100670.28;4993345;28;20039;-66